sensor_id;sensor_type;location;lat;lon;timestamp;pressure;altitude;pressure_sealevel;temperature;humidity
76448;BME280;65284;51.040;13.722;2023-09-30T00:02:26;100269.50;;;20.39;70.53
76448;BME280;65284;51.040;13.722;2023-09-30T00:04:53;100263.78;;;20.29;71.32
76448;BME280;65284;51.040;13.722;2023-09-30T00:07:20;100260.09;;;20.23;71.59
76448;BME280;65284;51.040;13.722;2023-09-30T00:09:46;100263.00;;;20.22;71.89
76448;BME280;65284;51.040;13.722;2023-09-30T00:12:13;100267.19;;;20.18;72.18
76448;BME280;65284;51.040;13.722;2023-09-30T00:14:40;100270.47;;;20.20;72.11
76448;BME280;65284;51.040;13.722;2023-09-30T00:17:06;100267.63;;;20.15;72.47
76448;BME280;65284;51.040;13.722;2023-09-30T00:19:32;100279.28;;;20.09;72.96
76448;BME280;65284;51.040;13.722;2023-09-30T00:21:59;100286.78;;;20.00;73.93
76448;BME280;65284;51.040;13.722;2023-09-30T00:24:26;100289.34;;;19.88;74.91
76448;BME280;65284;51.040;13.722;2023-09-30T00:26:53;100327.97;;;19.69;76.26
76448;BME280;65284;51.040;13.722;2023-09-30T00:29:20;100303.94;;;19.54;77.78
76448;BME280;65284;51.040;13.722;2023-09-30T00:31:46;100293.19;;;19.47;78.47
76448;BME280;65284;51.040;13.722;2023-09-30T00:34:14;100305.69;;;19.35;79.86
76448;BME280;65284;51.040;13.722;2023-09-30T00:36:40;100299.03;;;19.31;80.11
76448;BME280;65284;51.040;13.722;2023-09-30T00:39:07;100342.38;;;19.23;80.98
76448;BME280;65284;51.040;13.722;2023-09-30T00:41:34;100324.75;;;19.07;82.27
76448;BME280;65284;51.040;13.722;2023-09-30T00:44:01;100307.16;;;19.04;82.74
76448;BME280;65284;51.040;13.722;2023-09-30T00:46:32;100325.38;;;18.96;83.49
76448;BME280;65284;51.040;13.722;2023-09-30T00:49:00;100340.91;;;18.87;84.38
76448;BME280;65284;51.040;13.722;2023-09-30T00:51:27;100336.38;;;18.81;85.08
76448;BME280;65284;51.040;13.722;2023-09-30T00:53:56;100360.41;;;18.76;85.46
76448;BME280;65284;51.040;13.722;2023-09-30T00:56:25;100357.88;;;18.68;85.97
76448;BME280;65284;51.040;13.722;2023-09-30T00:58:52;100320.19;;;18.68;86.03
76448;BME280;65284;51.040;13.722;2023-09-30T01:01:22;100347.50;;;18.64;86.53
76448;BME280;65284;51.040;13.722;2023-09-30T01:03:48;100374.84;;;18.61;86.67
76448;BME280;65284;51.040;13.722;2023-09-30T01:06:16;100340.63;;;18.42;87.39
76448;BME280;65284;51.040;13.722;2023-09-30T01:08:42;100365.66;;;18.36;87.87
76448;BME280;65284;51.040;13.722;2023-09-30T01:11:09;100363.19;;;18.34;87.97
76448;BME280;65284;51.040;13.722;2023-09-30T01:13:37;100378.44;;;18.14;87.52
76448;BME280;65284;51.040;13.722;2023-09-30T01:16:08;100381.44;;;17.91;87.62
76448;BME280;65284;51.040;13.722;2023-09-30T01:18:39;100369.13;;;17.75;88.59
76448;BME280;65284;51.040;13.722;2023-09-30T01:21:07;100360.16;;;17.61;89.34
76448;BME280;65284;51.040;13.722;2023-09-30T01:23:35;100356.44;;;17.62;89.62
76448;BME280;65284;51.040;13.722;2023-09-30T01:26:03;100356.03;;;17.65;89.47
76448;BME280;65284;51.040;13.722;2023-09-30T01:28:30;100372.75;;;17.54;89.85
76448;BME280;65284;51.040;13.722;2023-09-30T01:30:58;100370.88;;;17.55;89.22
76448;BME280;65284;51.040;13.722;2023-09-30T01:33:25;100389.25;;;17.51;88.61
76448;BME280;65284;51.040;13.722;2023-09-30T01:35:51;100387.09;;;17.40;89.06
76448;BME280;65284;51.040;13.722;2023-09-30T01:38:18;100388.91;;;17.33;89.12
76448;BME280;65284;51.040;13.722;2023-09-30T01:40:45;100378.81;;;17.35;88.99
76448;BME280;65284;51.040;13.722;2023-09-30T01:43:13;100420.50;;;17.31;89.61
76448;BME280;65284;51.040;13.722;2023-09-30T01:45:43;100413.38;;;17.16;91.25
76448;BME280;65284;51.040;13.722;2023-09-30T01:48:10;100404.66;;;17.14;92.24
76448;BME280;65284;51.040;13.722;2023-09-30T01:50:38;100405.81;;;17.05;93.31
76448;BME280;65284;51.040;13.722;2023-09-30T01:53:08;100407.88;;;17.03;93.32
76448;BME280;65284;51.040;13.722;2023-09-30T01:55:36;100409.53;;;17.04;93.21
76448;BME280;65284;51.040;13.722;2023-09-30T01:58:03;100410.72;;;16.95;93.30
76448;BME280;65284;51.040;13.722;2023-09-30T02:00:29;100458.47;;;16.85;93.47
76448;BME280;65284;51.040;13.722;2023-09-30T02:02:57;100411.78;;;16.79;92.88
76448;BME280;65284;51.040;13.722;2023-09-30T02:05:23;100432.22;;;16.65;93.55
76448;BME280;65284;51.040;13.722;2023-09-30T02:07:50;100439.22;;;16.59;92.53
76448;BME280;65284;51.040;13.722;2023-09-30T02:10:17;100435.47;;;16.39;92.85
76448;BME280;65284;51.040;13.722;2023-09-30T02:12:45;100425.09;;;16.51;92.68
76448;BME280;65284;51.040;13.722;2023-09-30T02:15:12;100440.72;;;16.32;94.48
76448;BME280;65284;51.040;13.722;2023-09-30T02:17:39;100446.00;;;16.41;94.30
76448;BME280;65284;51.040;13.722;2023-09-30T02:20:06;100443.34;;;16.26;94.51
76448;BME280;65284;51.040;13.722;2023-09-30T02:22:39;100447.13;;;16.31;93.66
76448;BME280;65284;51.040;13.722;2023-09-30T02:25:06;100470.22;;;16.32;91.33
76448;BME280;65284;51.040;13.722;2023-09-30T02:27:33;100453.84;;;16.42;90.74
76448;BME280;65284;51.040;13.722;2023-09-30T02:30:00;100472.06;;;16.32;88.88
76448;BME280;65284;51.040;13.722;2023-09-30T02:32:27;100457.47;;;16.34;87.62
76448;BME280;65284;51.040;13.722;2023-09-30T02:34:54;100475.75;;;16.46;87.31
76448;BME280;65284;51.040;13.722;2023-09-30T02:37:20;100477.22;;;16.48;87.31
76448;BME280;65284;51.040;13.722;2023-09-30T02:39:47;100469.28;;;16.40;87.44
76448;BME280;65284;51.040;13.722;2023-09-30T02:42:13;100468.72;;;16.59;86.80
76448;BME280;65284;51.040;13.722;2023-09-30T02:44:39;100477.31;;;16.55;87.47
76448;BME280;65284;51.040;13.722;2023-09-30T02:47:06;100496.91;;;16.55;87.59
76448;BME280;65284;51.040;13.722;2023-09-30T02:49:33;100489.44;;;16.51;87.78
76448;BME280;65284;51.040;13.722;2023-09-30T02:51:59;100480.75;;;16.49;87.04
76448;BME280;65284;51.040;13.722;2023-09-30T02:54:26;100507.00;;;16.38;85.17
76448;BME280;65284;51.040;13.722;2023-09-30T02:56:53;100483.53;;;16.41;83.81
76448;BME280;65284;51.040;13.722;2023-09-30T02:59:21;100516.16;;;16.29;81.74
76448;BME280;65284;51.040;13.722;2023-09-30T03:01:48;100498.50;;;16.20;80.65
76448;BME280;65284;51.040;13.722;2023-09-30T03:04:15;100505.19;;;16.09;79.69
76448;BME280;65284;51.040;13.722;2023-09-30T03:06:46;100505.06;;;16.18;78.61
76448;BME280;65284;51.040;13.722;2023-09-30T03:09:12;100529.31;;;16.09;77.49
76448;BME280;65284;51.040;13.722;2023-09-30T03:11:41;100530.03;;;16.03;75.93
76448;BME280;65284;51.040;13.722;2023-09-30T03:14:10;100548.59;;;16.05;75.13
76448;BME280;65284;51.040;13.722;2023-09-30T03:16:37;100527.16;;;16.05;75.13
76448;BME280;65284;51.040;13.722;2023-09-30T03:19:04;100536.97;;;15.98;74.65
76448;BME280;65284;51.040;13.722;2023-09-30T03:21:32;100570.47;;;15.93;73.60
76448;BME280;65284;51.040;13.722;2023-09-30T03:23:58;100576.47;;;15.96;73.18
76448;BME280;65284;51.040;13.722;2023-09-30T03:26:24;100579.69;;;15.91;73.74
76448;BME280;65284;51.040;13.722;2023-09-30T03:28:51;100553.53;;;15.78;74.31
76448;BME280;65284;51.040;13.722;2023-09-30T03:31:21;100565.09;;;15.79;74.13
76448;BME280;65284;51.040;13.722;2023-09-30T03:33:49;100550.19;;;15.76;74.49
76448;BME280;65284;51.040;13.722;2023-09-30T03:36:17;100567.97;;;15.77;74.39
76448;BME280;65284;51.040;13.722;2023-09-30T03:38:45;100580.22;;;15.72;74.42
76448;BME280;65284;51.040;13.722;2023-09-30T03:41:11;100573.03;;;15.64;74.55
76448;BME280;65284;51.040;13.722;2023-09-30T03:43:39;100578.59;;;15.62;74.18
76448;BME280;65284;51.040;13.722;2023-09-30T03:46:08;100604.25;;;15.57;74.17
76448;BME280;65284;51.040;13.722;2023-09-30T03:48:35;100623.03;;;15.48;74.19
76448;BME280;65284;51.040;13.722;2023-09-30T03:51:12;100594.97;;;15.44;74.00
76448;BME280;65284;51.040;13.722;2023-09-30T03:53:41;100614.34;;;15.46;73.83
76448;BME280;65284;51.040;13.722;2023-09-30T03:56:08;100610.34;;;15.42;74.01
76448;BME280;65284;51.040;13.722;2023-09-30T03:58:34;100631.94;;;15.41;73.88
76448;BME280;65284;51.040;13.722;2023-09-30T04:01:02;100624.44;;;15.36;74.50
76448;BME280;65284;51.040;13.722;2023-09-30T04:03:30;100621.78;;;15.36;74.35
76448;BME280;65284;51.040;13.722;2023-09-30T04:06:01;100650.75;;;15.33;74.76
76448;BME280;65284;51.040;13.722;2023-09-30T04:08:28;100636.56;;;15.24;75.42
76448;BME280;65284;51.040;13.722;2023-09-30T04:10:55;100635.25;;;15.20;75.71
76448;BME280;65284;51.040;13.722;2023-09-30T04:13:21;100640.00;;;15.10;76.13
76448;BME280;65284;51.040;13.722;2023-09-30T04:15:48;100658.03;;;15.08;76.82
76448;BME280;65284;51.040;13.722;2023-09-30T04:18:15;100640.34;;;15.07;76.88
76448;BME280;65284;51.040;13.722;2023-09-30T04:20:42;100641.50;;;15.04;77.23
76448;BME280;65284;51.040;13.722;2023-09-30T04:23:08;100632.34;;;14.98;77.31
76448;BME280;65284;51.040;13.722;2023-09-30T04:25:36;100642.38;;;14.96;77.49
76448;BME280;65284;51.040;13.722;2023-09-30T04:28:03;100643.41;;;14.95;77.74
76448;BME280;65284;51.040;13.722;2023-09-30T04:30:30;100662.19;;;14.79;78.24
76448;BME280;65284;51.040;13.722;2023-09-30T04:32:59;100671.34;;;14.85;78.28
76448;BME280;65284;51.040;13.722;2023-09-30T04:35:26;100650.97;;;14.84;78.29
76448;BME280;65284;51.040;13.722;2023-09-30T04:37:52;100658.72;;;14.70;78.70
76448;BME280;65284;51.040;13.722;2023-09-30T04:40:19;100663.53;;;14.75;78.79
76448;BME280;65284;51.040;13.722;2023-09-30T04:42:48;100660.19;;;14.73;78.72
76448;BME280;65284;51.040;13.722;2023-09-30T04:45:16;100680.25;;;14.77;78.79
76448;BME280;65284;51.040;13.722;2023-09-30T04:47:51;100694.28;;;14.79;78.95
76448;BME280;65284;51.040;13.722;2023-09-30T04:50:18;100677.91;;;14.66;79.69
76448;BME280;65284;51.040;13.722;2023-09-30T04:52:48;100684.28;;;14.65;79.96
76448;BME280;65284;51.040;13.722;2023-09-30T04:55:15;100695.16;;;14.55;80.61
76448;BME280;65284;51.040;13.722;2023-09-30T04:57:44;100688.47;;;14.59;80.86
76448;BME280;65284;51.040;13.722;2023-09-30T05:00:13;100693.78;;;14.51;81.25
76448;BME280;65284;51.040;13.722;2023-09-30T05:02:40;100691.00;;;14.52;81.71
76448;BME280;65284;51.040;13.722;2023-09-30T05:05:07;100703.00;;;14.56;81.21
76448;BME280;65284;51.040;13.722;2023-09-30T05:07:33;100709.72;;;14.52;81.74
76448;BME280;65284;51.040;13.722;2023-09-30T05:09:59;100700.00;;;14.51;81.96
76448;BME280;65284;51.040;13.722;2023-09-30T05:12:29;100689.47;;;14.42;82.38
76448;BME280;65284;51.040;13.722;2023-09-30T05:14:55;100699.00;;;14.44;82.34
76448;BME280;65284;51.040;13.722;2023-09-30T05:17:22;100694.47;;;14.45;82.24
76448;BME280;65284;51.040;13.722;2023-09-30T05:19:48;100694.97;;;14.48;82.22
76448;BME280;65284;51.040;13.722;2023-09-30T05:22:15;100700.31;;;14.48;82.17
76448;BME280;65284;51.040;13.722;2023-09-30T05:24:41;100690.97;;;14.61;81.41
76448;BME280;65284;51.040;13.722;2023-09-30T05:27:08;100694.31;;;14.54;81.62
76448;BME280;65284;51.040;13.722;2023-09-30T05:29:35;100691.47;;;14.56;81.38
76448;BME280;65284;51.040;13.722;2023-09-30T05:32:02;100688.63;;;14.57;81.75
76448;BME280;65284;51.040;13.722;2023-09-30T05:34:29;100689.31;;;14.51;81.74
76448;BME280;65284;51.040;13.722;2023-09-30T05:36:55;100690.66;;;14.55;81.90
76448;BME280;65284;51.040;13.722;2023-09-30T05:39:22;100682.28;;;14.42;82.86
76448;BME280;65284;51.040;13.722;2023-09-30T05:41:48;100684.94;;;14.42;82.86
76448;BME280;65284;51.040;13.722;2023-09-30T05:44:15;100693.66;;;14.52;82.67
76448;BME280;65284;51.040;13.722;2023-09-30T05:46:41;100692.28;;;14.40;83.61
76448;BME280;65284;51.040;13.722;2023-09-30T05:49:09;100694.13;;;14.48;83.71
76448;BME280;65284;51.040;13.722;2023-09-30T05:51:40;100693.81;;;14.43;84.89
76448;BME280;65284;51.040;13.722;2023-09-30T05:54:08;100698.31;;;14.34;85.38
76448;BME280;65284;51.040;13.722;2023-09-30T05:56:38;100687.63;;;14.42;85.53
76448;BME280;65284;51.040;13.722;2023-09-30T05:59:05;100690.63;;;14.31;86.20
76448;BME280;65284;51.040;13.722;2023-09-30T06:01:32;100706.66;;;14.31;86.79
76448;BME280;65284;51.040;13.722;2023-09-30T06:04:00;100706.38;;;14.26;87.28
76448;BME280;65284;51.040;13.722;2023-09-30T06:06:27;100707.00;;;14.28;87.31
76448;BME280;65284;51.040;13.722;2023-09-30T06:08:57;100705.16;;;14.28;86.99
76448;BME280;65284;51.040;13.722;2023-09-30T06:11:25;100713.69;;;14.24;87.39
76448;BME280;65284;51.040;13.722;2023-09-30T06:13:54;100724.88;;;14.27;87.17
76448;BME280;65284;51.040;13.722;2023-09-30T06:16:21;100733.41;;;14.23;87.64
76448;BME280;65284;51.040;13.722;2023-09-30T06:18:49;100747.09;;;14.28;87.44
76448;BME280;65284;51.040;13.722;2023-09-30T06:21:16;100746.44;;;14.18;87.73
76448;BME280;65284;51.040;13.722;2023-09-30T06:23:47;100746.59;;;14.32;87.43
76448;BME280;65284;51.040;13.722;2023-09-30T06:26:14;100738.75;;;14.39;86.90
76448;BME280;65284;51.040;13.722;2023-09-30T06:28:44;100750.44;;;14.30;87.48
76448;BME280;65284;51.040;13.722;2023-09-30T06:31:11;100750.94;;;14.33;87.53
76448;BME280;65284;51.040;13.722;2023-09-30T06:33:38;100768.13;;;14.31;87.49
76448;BME280;65284;51.040;13.722;2023-09-30T06:36:09;100777.47;;;14.43;86.92
76448;BME280;65284;51.040;13.722;2023-09-30T06:38:37;100767.63;;;14.36;86.86
76448;BME280;65284;51.040;13.722;2023-09-30T06:41:04;100767.13;;;14.40;86.50
76448;BME280;65284;51.040;13.722;2023-09-30T06:43:31;100790.88;;;14.35;87.25
76448;BME280;65284;51.040;13.722;2023-09-30T06:45:59;100783.16;;;14.40;86.41
76448;BME280;65284;51.040;13.722;2023-09-30T06:48:25;100801.88;;;14.48;86.04
76448;BME280;65284;51.040;13.722;2023-09-30T06:50:52;100799.88;;;14.50;86.08
76448;BME280;65284;51.040;13.722;2023-09-30T06:53:19;100797.91;;;14.52;85.92
76448;BME280;65284;51.040;13.722;2023-09-30T06:55:47;100793.19;;;14.46;84.97
76448;BME280;65284;51.040;13.722;2023-09-30T06:58:14;100794.22;;;14.53;85.05
76448;BME280;65284;51.040;13.722;2023-09-30T07:00:45;100792.88;;;14.57;84.62
76448;BME280;65284;51.040;13.722;2023-09-30T07:03:11;100796.22;;;14.51;84.28
76448;BME280;65284;51.040;13.722;2023-09-30T07:05:39;100805.91;;;14.44;84.56
76448;BME280;65284;51.040;13.722;2023-09-30T07:08:06;100799.88;;;14.50;83.47
76448;BME280;65284;51.040;13.722;2023-09-30T07:10:33;100806.59;;;14.54;83.15
76448;BME280;65284;51.040;13.722;2023-09-30T07:13:02;100809.59;;;14.60;83.10
76448;BME280;65284;51.040;13.722;2023-09-30T07:15:28;100806.78;;;14.61;83.08
76448;BME280;65284;51.040;13.722;2023-09-30T07:17:55;100816.78;;;14.75;82.34
76448;BME280;65284;51.040;13.722;2023-09-30T07:20:22;100826.97;;;14.80;82.40
76448;BME280;65284;51.040;13.722;2023-09-30T07:22:49;100831.00;;;14.76;82.14
76448;BME280;65284;51.040;13.722;2023-09-30T07:25:32;100835.00;;;14.88;82.04
76448;BME280;65284;51.040;13.722;2023-09-30T07:27:59;100827.28;;;14.93;81.73
76448;BME280;65284;51.040;13.722;2023-09-30T07:30:27;100845.69;;;14.88;81.54
76448;BME280;65284;51.040;13.722;2023-09-30T07:32:54;100840.34;;;14.80;82.04
76448;BME280;65284;51.040;13.722;2023-09-30T07:35:20;100840.69;;;14.85;81.75
76448;BME280;65284;51.040;13.722;2023-09-30T07:37:47;100815.25;;;14.89;80.80
76448;BME280;65284;51.040;13.722;2023-09-30T07:40:13;100802.72;;;14.98;80.92
76448;BME280;65284;51.040;13.722;2023-09-30T07:42:40;100808.69;;;15.08;79.66
76448;BME280;65284;51.040;13.722;2023-09-30T07:45:07;100791.13;;;15.14;79.09
76448;BME280;65284;51.040;13.722;2023-09-30T07:47:34;100804.50;;;15.22;79.24
76448;BME280;65284;51.040;13.722;2023-09-30T07:50:01;100812.88;;;15.19;78.40
76448;BME280;65284;51.040;13.722;2023-09-30T07:52:36;100824.53;;;15.34;78.23
76448;BME280;65284;51.040;13.722;2023-09-30T07:55:03;100832.53;;;15.42;77.20
76448;BME280;65284;51.040;13.722;2023-09-30T07:57:31;100821.00;;;15.42;76.89
76448;BME280;65284;51.040;13.722;2023-09-30T07:59:58;100821.97;;;15.41;76.86
76448;BME280;65284;51.040;13.722;2023-09-30T08:02:24;100830.66;;;15.51;77.00
76448;BME280;65284;51.040;13.722;2023-09-30T08:04:54;100831.16;;;15.55;76.43
76448;BME280;65284;51.040;13.722;2023-09-30T08:07:20;100833.16;;;15.53;76.64
76448;BME280;65284;51.040;13.722;2023-09-30T08:09:47;100819.84;;;15.36;76.98
76448;BME280;65284;51.040;13.722;2023-09-30T08:12:14;100812.78;;;15.43;75.92
76448;BME280;65284;51.040;13.722;2023-09-30T08:14:41;100818.34;;;15.34;76.49
76448;BME280;65284;51.040;13.722;2023-09-30T08:17:07;100838.25;;;15.39;75.82
76448;BME280;65284;51.040;13.722;2023-09-30T08:19:34;100841.59;;;15.41;75.43
76448;BME280;65284;51.040;13.722;2023-09-30T08:22:00;100830.31;;;15.54;75.43
76448;BME280;65284;51.040;13.722;2023-09-30T08:24:28;100837.88;;;15.51;75.95
76448;BME280;65284;51.040;13.722;2023-09-30T08:26:55;100839.19;;;15.46;76.23
76448;BME280;65284;51.040;13.722;2023-09-30T08:29:22;100852.75;;;15.53;75.51
76448;BME280;65284;51.040;13.722;2023-09-30T08:31:49;100847.91;;;15.48;75.85
76448;BME280;65284;51.040;13.722;2023-09-30T08:34:16;100847.22;;;15.46;75.59
76448;BME280;65284;51.040;13.722;2023-09-30T08:36:44;100842.91;;;15.45;75.49
76448;BME280;65284;51.040;13.722;2023-09-30T08:39:10;100833.16;;;15.53;74.70
76448;BME280;65284;51.040;13.722;2023-09-30T08:41:37;100849.22;;;15.53;73.48
76448;BME280;65284;51.040;13.722;2023-09-30T08:44:04;100847.06;;;15.56;72.60
76448;BME280;65284;51.040;13.722;2023-09-30T08:46:32;100856.78;;;15.49;72.56
76448;BME280;65284;51.040;13.722;2023-09-30T08:49:00;100852.56;;;15.55;73.02
76448;BME280;65284;51.040;13.722;2023-09-30T08:51:28;100851.88;;;15.61;72.58
76448;BME280;65284;51.040;13.722;2023-09-30T08:53:56;100846.72;;;15.59;72.75
76448;BME280;65284;51.040;13.722;2023-09-30T08:56:29;100850.69;;;15.80;72.29
76448;BME280;65284;51.040;13.722;2023-09-30T08:58:57;100866.94;;;15.70;71.86
76448;BME280;65284;51.040;13.722;2023-09-30T09:01:27;100867.44;;;15.74;70.48
76448;BME280;65284;51.040;13.722;2023-09-30T09:03:55;100856.53;;;15.67;71.21
76448;BME280;65284;51.040;13.722;2023-09-30T09:06:22;100855.53;;;15.76;72.04
76448;BME280;65284;51.040;13.722;2023-09-30T09:08:49;100866.34;;;15.91;71.09
76448;BME280;65284;51.040;13.722;2023-09-30T09:11:15;100868.88;;;15.92;69.60
76448;BME280;65284;51.040;13.722;2023-09-30T09:13:50;100861.31;;;15.96;69.79
76448;BME280;65284;51.040;13.722;2023-09-30T09:16:19;100866.56;;;15.81;70.56
76448;BME280;65284;51.040;13.722;2023-09-30T09:18:46;100864.56;;;15.83;70.03
76448;BME280;65284;51.040;13.722;2023-09-30T09:21:16;100886.31;;;15.88;68.71
76448;BME280;65284;51.040;13.722;2023-09-30T09:23:45;100875.47;;;15.74;68.20
76448;BME280;65284;51.040;13.722;2023-09-30T09:26:33;100869.59;;;15.78;69.40
76448;BME280;65284;51.040;13.722;2023-09-30T09:29:02;100866.41;;;15.83;69.78
76448;BME280;65284;51.040;13.722;2023-09-30T09:31:32;100867.22;;;15.83;69.63
76448;BME280;65284;51.040;13.722;2023-09-30T09:34:02;100887.13;;;15.89;70.29
76448;BME280;65284;51.040;13.722;2023-09-30T09:36:43;100882.66;;;15.73;70.40
76448;BME280;65284;51.040;13.722;2023-09-30T09:39:10;100876.94;;;15.76;69.19
76448;BME280;65284;51.040;13.722;2023-09-30T09:41:53;100867.78;;;15.71;70.21
76448;BME280;65284;51.040;13.722;2023-09-30T09:44:21;100876.31;;;15.66;70.42
76448;BME280;65284;51.040;13.722;2023-09-30T09:46:49;100859.56;;;15.72;69.88
76448;BME280;65284;51.040;13.722;2023-09-30T09:49:17;100863.06;;;15.81;69.72
76448;BME280;65284;51.040;13.722;2023-09-30T09:51:45;100868.91;;;15.84;68.70
76448;BME280;65284;51.040;13.722;2023-09-30T09:54:12;100874.88;;;15.95;64.83
76448;BME280;65284;51.040;13.722;2023-09-30T09:56:39;100867.94;;;15.77;66.20
76448;BME280;65284;51.040;13.722;2023-09-30T09:59:08;100880.44;;;15.85;66.20
76448;BME280;65284;51.040;13.722;2023-09-30T10:01:38;100880.88;;;15.97;67.51
76448;BME280;65284;51.040;13.722;2023-09-30T10:04:06;100866.78;;;16.03;68.19
76448;BME280;65284;51.040;13.722;2023-09-30T10:06:34;100859.16;;;16.23;67.53
76448;BME280;65284;51.040;13.722;2023-09-30T10:09:07;100866.66;;;16.27;65.83
76448;BME280;65284;51.040;13.722;2023-09-30T10:11:35;100874.44;;;16.14;65.83
76448;BME280;65284;51.040;13.722;2023-09-30T10:14:02;100874.53;;;15.98;64.31
76448;BME280;65284;51.040;13.722;2023-09-30T10:19:20;100866.72;;;16.19;62.39
76448;BME280;65284;51.040;13.722;2023-09-30T10:24:53;100867.94;;;16.40;63.71
76448;BME280;65284;51.040;13.722;2023-09-30T10:29:59;100876.88;;;16.55;62.42
76448;BME280;65284;51.040;13.722;2023-09-30T10:35:21;100866.72;;;16.65;62.23
76448;BME280;65284;51.040;13.722;2023-09-30T10:40:51;100871.09;;;16.66;63.70
76448;BME280;65284;51.040;13.722;2023-09-30T10:43:37;100883.88;;;16.56;63.85
76448;BME280;65284;51.040;13.722;2023-09-30T10:48:53;100879.97;;;16.44;63.95
76448;BME280;65284;51.040;13.722;2023-09-30T10:51:20;100884.38;;;16.36;64.20
76448;BME280;65284;51.040;13.722;2023-09-30T10:53:52;100874.38;;;16.53;63.65
76448;BME280;65284;51.040;13.722;2023-09-30T10:56:23;100882.69;;;16.58;61.53
76448;BME280;65284;51.040;13.722;2023-09-30T10:58:52;100872.81;;;16.59;61.14
76448;BME280;65284;51.040;13.722;2023-09-30T11:01:20;100873.06;;;16.72;61.60
76448;BME280;65284;51.040;13.722;2023-09-30T11:03:48;100861.28;;;16.81;61.67
76448;BME280;65284;51.040;13.722;2023-09-30T11:06:20;100869.25;;;16.90;60.69
76448;BME280;65284;51.040;13.722;2023-09-30T11:08:53;100875.56;;;16.97;59.18
76448;BME280;65284;51.040;13.722;2023-09-30T11:11:41;100874.81;;;17.03;59.43
76448;BME280;65284;51.040;13.722;2023-09-30T11:14:25;100867.16;;;17.15;58.64
76448;BME280;65284;51.040;13.722;2023-09-30T11:17:00;100868.50;;;17.19;57.54
76448;BME280;65284;51.040;13.722;2023-09-30T11:19:46;100867.16;;;17.15;57.34
76448;BME280;65284;51.040;13.722;2023-09-30T11:22:16;100867.16;;;17.15;55.44
76448;BME280;65284;51.040;13.722;2023-09-30T11:24:43;100866.97;;;17.01;56.69
76448;BME280;65284;51.040;13.722;2023-09-30T11:27:12;100866.88;;;16.95;57.03
76448;BME280;65284;51.040;13.722;2023-09-30T11:29:48;100857.25;;;17.15;56.63
76448;BME280;65284;51.040;13.722;2023-09-30T11:32:25;100858.38;;;17.21;56.76
76448;BME280;65284;51.040;13.722;2023-09-30T11:34:53;100853.66;;;17.08;57.62
76448;BME280;65284;51.040;13.722;2023-09-30T11:37:20;100857.59;;;16.97;56.66
76448;BME280;65284;51.040;13.722;2023-09-30T11:39:47;100858.47;;;16.98;56.04
76448;BME280;65284;51.040;13.722;2023-09-30T11:42:16;100868.81;;;17.01;56.54
76448;BME280;65284;51.040;13.722;2023-09-30T11:44:47;100862.44;;;17.02;56.58
76448;BME280;65284;51.040;13.722;2023-09-30T11:47:14;100864.81;;;16.97;56.97
76448;BME280;65284;51.040;13.722;2023-09-30T11:49:42;100860.41;;;17.04;57.42
76448;BME280;65284;51.040;13.722;2023-09-30T11:52:12;100856.03;;;17.03;56.92
76448;BME280;65284;51.040;13.722;2023-09-30T11:57:11;100847.09;;;17.11;57.05
76448;BME280;65284;51.040;13.722;2023-09-30T11:59:42;100843.66;;;17.17;57.21
76448;BME280;65284;51.040;13.722;2023-09-30T12:02:09;100851.88;;;17.15;57.24
76448;BME280;65284;51.040;13.722;2023-09-30T12:04:41;100835.31;;;17.12;56.95
76448;BME280;65284;51.040;13.722;2023-09-30T12:07:08;100838.75;;;17.20;56.52
76448;BME280;65284;51.040;13.722;2023-09-30T12:09:35;100840.41;;;17.21;55.22
76448;BME280;65284;51.040;13.722;2023-09-30T12:12:04;100836.00;;;17.28;55.01
76448;BME280;65284;51.040;13.722;2023-09-30T12:14:30;100833.75;;;17.32;55.29
76448;BME280;65284;51.040;13.722;2023-09-30T12:16:57;100827.47;;;17.40;55.35
76448;BME280;65284;51.040;13.722;2023-09-30T12:19:24;100821.81;;;17.49;55.30
76448;BME280;65284;51.040;13.722;2023-09-30T12:21:52;100821.81;;;17.49;55.77
76448;BME280;65284;51.040;13.722;2023-09-30T12:24:19;100820.25;;;17.55;56.25
76448;BME280;65284;51.040;13.722;2023-09-30T12:26:49;100817.72;;;17.68;56.13
76448;BME280;65284;51.040;13.722;2023-09-30T12:29:16;100820.41;;;17.68;55.87
76448;BME280;65284;51.040;13.722;2023-09-30T12:31:47;100823.75;;;17.70;55.84
76448;BME280;65284;51.040;13.722;2023-09-30T12:34:16;100820.41;;;17.68;55.33
76448;BME280;65284;51.040;13.722;2023-09-30T12:36:43;100818.00;;;17.73;53.47
76448;BME280;65284;51.040;13.722;2023-09-30T12:39:10;100818.09;;;17.80;53.31
76448;BME280;65284;51.040;13.722;2023-09-30T12:41:41;100810.38;;;17.92;53.04
76448;BME280;65284;51.040;13.722;2023-09-30T12:44:11;100809.50;;;18.06;52.34
76448;BME280;65284;51.040;13.722;2023-09-30T12:46:38;100803.72;;;17.88;52.75
76448;BME280;65284;51.040;13.722;2023-09-30T12:49:06;100792.09;;;17.81;52.46
76448;BME280;65284;51.040;13.722;2023-09-30T12:51:34;100785.75;;;17.73;52.44
76448;BME280;65284;51.040;13.722;2023-09-30T12:54:01;100789.78;;;17.78;52.19
76448;BME280;65284;51.040;13.722;2023-09-30T12:56:27;100795.16;;;17.78;52.22
76448;BME280;65284;51.040;13.722;2023-09-30T12:58:58;100795.03;;;17.86;52.07
76448;BME280;65284;51.040;13.722;2023-09-30T13:01:25;100808.22;;;17.81;52.59
76448;BME280;65284;51.040;13.722;2023-09-30T13:03:55;100790.31;;;17.73;52.95
76448;BME280;65284;51.040;13.722;2023-09-30T13:08:17;100797.09;;;17.84;53.02